Time;durP1;ratioP1;P1;durP2;ratioP2;P2;SDS_P1;SDS_P2;PMS_P1;PMS_P2;Temp;Humidity;BMP_temperature;BMP_pressure;BME280_temperature;BME280_humidity;BME280_pressure;Samples;Min_cycle;Max_cycle;Signal;HPM_P1;HPM_P2
2023/07/17 00:00:41;;;;;;;2.80;2.70;;;25.70;40.70;;;;;;20784;6822;117217;-73
2023/07/17 00:03:07;;;;;;;3.20;3.00;;;25.60;41.20;;;;;;20779;6822;116932;-73
2023/07/17 00:05:33;;;;;;;3.53;3.23;;;25.50;41.60;;;;;;20547;6822;277239;-73
2023/07/17 00:07:58;;;;;;;3.67;2.77;;;25.70;40.80;;;;;;20779;6822;117540;-73
2023/07/17 00:10:24;;;;;;;3.97;3.00;;;26.00;40.30;;;;;;20568;6822;310268;-73
2023/07/17 00:12:50;;;;;;;3.42;3.12;;;26.00;40.40;;;;;;20581;6822;318582;-73
2023/07/17 00:15:16;;;;;;;3.30;3.03;;;26.30;40.00;;;;;;20559;6822;335903;-74
2023/07/17 00:17:41;;;;;;;2.90;2.70;;;26.40;39.80;;;;;;20782;6822;120058;-72
2023/07/17 00:20:09;;;;;;;3.83;3.00;;;26.20;40.30;;;;;;20786;6822;119727;-73
2023/07/17 00:22:34;;;;;;;3.30;3.00;;;25.90;41.00;;;;;;20563;6822;299359;-73
2023/07/17 00:24:58;;;;;;;4.90;2.90;;;25.90;40.80;;;;;;20780;6822;117005;-73
2023/07/17 00:27:24;;;;;;;2.80;2.60;;;25.80;41.30;;;;;;20766;6822;117327;-75
2023/07/17 00:29:50;;;;;;;2.97;2.78;;;25.70;41.70;;;;;;20574;6822;335912;-76
2023/07/17 00:32:15;;;;;;;3.33;3.03;;;25.70;41.60;;;;;;20572;6822;305649;-73
2023/07/17 00:34:41;;;;;;;3.50;2.90;;;26.00;41.20;;;;;;20554;6822;277704;-74
2023/07/17 00:37:06;;;;;;;2.80;2.60;;;26.30;41.00;;;;;;20786;6822;117472;-74
2023/07/17 00:39:34;;;;;;;3.53;3.23;;;25.70;42.10;;;;;;20761;6822;124008;-72
2023/07/17 00:42:01;;;;;;;5.07;3.35;;;25.70;42.20;;;;;;20559;6822;336274;-73
2023/07/17 00:44:26;;;;;;;3.47;2.97;;;25.70;42.20;;;;;;20762;6822;117082;-73
2023/07/17 00:46:52;;;;;;;4.43;3.00;;;25.60;42.60;;;;;;20571;6822;287830;-73
2023/07/17 00:49:17;;;;;;;3.37;3.10;;;25.70;42.70;;;;;;20558;6822;310803;-73
2023/07/17 00:51:43;;;;;;;3.75;3.15;;;25.90;42.70;;;;;;20579;6820;306675;-73
2023/07/17 00:54:08;;;;;;;3.28;2.87;;;26.10;42.50;;;;;;20584;6821;336031;-73
2023/07/17 00:56:34;;;;;;;3.27;2.93;;;26.30;42.40;;;;;;20786;6821;117397;-73
2023/07/17 00:58:59;;;;;;;4.70;3.03;;;26.00;42.80;;;;;;20573;6822;277247;-73
2023/07/17 01:01:25;;;;;;;3.50;3.20;;;26.00;43.00;;;;;;20546;6822;277394;-73
2023/07/17 01:03:50;;;;;;;3.58;3.28;;;26.20;42.80;;;;;;20572;6822;281701;-73
2023/07/17 01:06:16;;;;;;;3.00;2.80;;;26.30;42.50;;;;;;20770;6822;117027;-73
2023/07/17 01:08:42;;;;;;;3.50;3.23;;;26.10;42.90;;;;;;20561;6822;306546;-73
2023/07/17 01:11:08;;;;;;;4.70;3.37;;;26.10;42.90;;;;;;20573;6822;306673;-73
2023/07/17 01:13:44;;;;;;;3.50;2.73;;;26.10;43.00;;;;;;20762;6822;119838;-73
2023/07/17 01:16:10;;;;;;;2.67;2.47;;;26.10;43.00;;;;;;20779;6822;119646;-73
2023/07/17 01:18:35;;;;;;;3.50;2.93;;;25.80;43.60;;;;;;20780;6822;116988;-73
2023/07/17 01:21:01;;;;;;;3.30;2.90;;;25.50;44.10;;;;;;20786;6822;117504;-73
2023/07/17 01:23:26;;;;;;;3.33;2.70;;;25.30;44.50;;;;;;20756;6822;117449;-73
2023/07/17 01:25:53;;;;;;;3.03;2.73;;;25.30;44.50;;;;;;20569;6822;277073;-74
2023/07/17 01:28:19;;;;;;;2.57;2.40;;;25.30;44.50;;;;;;20774;6822;119606;-74
2023/07/17 01:30:44;;;;;;;3.00;2.80;;;25.20;44.50;;;;;;20564;6822;306737;-73
2023/07/17 01:33:10;;;;;;;3.20;2.90;;;25.70;43.30;;;;;;20578;6822;336866;-73
2023/07/17 01:35:36;;;;;;;3.20;2.90;;;25.70;43.30;;;;;;20554;6822;295938;-74
2023/07/17 01:38:01;;;;;;;3.85;2.90;;;26.00;42.80;;;;;;20572;6822;276646;-73
2023/07/17 01:40:27;;;;;;;3.10;2.72;;;26.20;42.30;;;;;;20784;6822;120078;-73
2023/07/17 01:42:52;;;;;;;2.87;2.60;;;26.00;42.80;;;;;;20780;6822;120272;-73
2023/07/17 01:45:19;;;;;;;2.93;2.70;;;25.40;43.70;;;;;;20758;6822;117344;-74
2023/07/17 01:47:44;;;;;;;3.00;2.70;;;25.40;44.00;;;;;;20572;6822;307800;-73
2023/07/17 01:50:10;;;;;;;3.10;2.77;;;25.90;43.00;;;;;;20570;6822;309931;-73
2023/07/17 01:52:36;;;;;;;4.30;2.40;;;25.90;42.50;;;;;;20779;6822;117137;-73
2023/07/17 01:55:02;;;;;;;3.50;2.83;;;25.80;42.70;;;;;;20552;6822;277139;-72
2023/07/17 01:57:27;;;;;;;2.50;2.30;;;25.80;42.00;;;;;;20768;6822;117459;-73
2023/07/17 01:59:53;;;;;;;3.23;2.93;;;25.60;42.60;;;;;;20562;6822;306901;-73
2023/07/17 02:02:19;;;;;;;2.70;2.50;;;25.50;43.30;;;;;;20786;6820;120360;-72
2023/07/17 02:04:46;;;;;;;3.77;2.73;;;25.50;43.30;;;;;;20780;6821;119922;-72
2023/07/17 02:07:12;;;;;;;3.20;2.90;;;24.90;44.80;;;;;;20779;6821;117415;-73
2023/07/17 02:09:38;;;;;;;2.70;2.50;;;24.80;44.70;;;;;;20760;6822;123146;-73
2023/07/17 02:12:04;;;;;;;2.70;2.40;;;24.70;45.20;;;;;;20784;6822;117405;-73
2023/07/17 02:14:29;;;;;;;3.10;2.90;;;24.50;45.40;;;;;;20783;6822;117024;-74
2023/07/17 02:16:55;;;;;;;3.97;2.80;;;24.30;45.90;;;;;;20779;6822;119685;-73
2023/07/17 02:19:22;;;;;;;3.30;3.00;;;24.50;45.50;;;;;;20560;6822;336008;-73
2023/07/17 02:21:47;;;;;;;3.23;2.90;;;24.50;45.50;;;;;;20784;6822;117125;-73
2023/07/17 02:24:13;;;;;;;3.13;2.83;;;24.60;45.60;;;;;;20578;6822;306585;-73
2023/07/17 02:26:38;;;;;;;2.90;2.70;;;24.80;45.20;;;;;;20780;6822;117198;-73
2023/07/17 02:29:04;;;;;;;3.05;2.85;;;24.70;45.20;;;;;;20783;6822;117512;-74
2023/07/17 02:31:30;;;;;;;3.10;2.90;;;24.70;45.10;;;;;;20553;6822;306469;-72
2023/07/17 02:33:56;;;;;;;3.80;3.00;;;24.70;45.10;;;;;;20784;6822;117326;-76
2023/07/17 02:36:22;;;;;;;3.57;3.03;;;24.90;44.90;;;;;;20567;6822;335191;-73
2023/07/17 02:38:48;;;;;;;3.43;3.13;;;24.90;44.90;;;;;;20571;6822;277603;-74
2023/07/17 02:41:13;;;;;;;3.07;2.83;;;25.20;44.40;;;;;;20577;6822;277213;-74
2023/07/17 02:43:39;;;;;;;2.77;2.60;;;25.50;43.90;;;;;;20762;6822;123478;-74
2023/07/17 02:46:04;;;;;;;2.83;2.63;;;25.40;44.40;;;;;;20771;6822;121623;-74
2023/07/17 02:48:30;;;;;;;3.13;2.47;;;25.00;45.10;;;;;;20798;6822;117027;-74
2023/07/17 02:50:55;;;;;;;3.10;2.80;;;24.70;45.50;;;;;;20798;6822;117282;-73
2023/07/17 02:53:21;;;;;;;3.20;2.90;;;24.50;46.00;;;;;;20566;6822;277157;-73
2023/07/17 02:55:47;;;;;;;3.90;3.00;;;24.80;45.90;;;;;;20585;6822;306512;-74
2023/07/17 02:58:17;;;;;;;3.07;2.87;;;25.10;45.20;;;;;;20787;6822;117289;-73
2023/07/17 03:00:43;;;;;;;4.00;2.97;;;25.10;45.20;;;;;;20567;6822;307245;-73
2023/07/17 03:03:08;;;;;;;2.90;2.70;;;25.30;44.50;;;;;;20778;6822;117063;-73
2023/07/17 03:05:34;;;;;;;3.50;3.20;;;25.20;44.70;;;;;;20553;6822;276990;-72
2023/07/17 03:08:00;;;;;;;3.63;2.50;;;25.30;44.40;;;;;;20741;6822;117203;-73
2023/07/17 03:10:26;;;;;;;3.05;2.85;;;25.30;44.40;;;;;;20532;6822;282143;-72
2023/07/17 03:12:52;;;;;;;2.80;2.60;;;25.30;44.70;;;;;;20743;6822;117228;-72
2023/07/17 03:15:18;;;;;;;3.47;3.20;;;25.30;44.70;;;;;;20541;6820;285019;-74
2023/07/17 03:17:43;;;;;;;3.20;2.92;;;25.40;44.40;;;;;;20412;6836;335820;-73
2023/07/17 03:20:09;;;;;;;2.80;2.60;;;25.70;44.10;;;;;;20732;6837;116884;-73
2023/07/17 03:22:36;;;;;;;3.60;2.73;;;25.30;45.00;;;;;;20731;6837;117512;-73
2023/07/17 03:25:01;;;;;;;3.40;2.80;;;25.30;45.00;;;;;;20683;6837;117397;-73
2023/07/17 03:27:27;;;;;;;3.00;2.80;;;24.80;46.00;;;;;;20708;6837;119685;-73
2023/07/17 03:29:53;;;;;;;4.20;2.80;;;24.80;46.00;;;;;;20737;6837;117160;-73
2023/07/17 03:32:19;;;;;;;2.90;2.60;;;24.60;46.30;;;;;;20519;6837;306783;-73
2023/07/17 03:34:45;;;;;;;3.33;2.97;;;24.90;46.40;;;;;;20734;6837;119288;-73
2023/07/17 03:37:11;;;;;;;3.33;3.13;;;24.90;46.40;;;;;;20729;6837;117451;-74
2023/07/17 03:39:36;;;;;;;3.78;3.15;;;24.80;46.60;;;;;;20516;6837;336335;-73
2023/07/17 03:42:04;;;;;;;2.80;2.60;;;25.00;46.60;;;;;;20746;6837;120461;-74
2023/07/17 03:44:27;;;;;;;2.78;2.62;;;24.90;46.60;;;;;;20744;6837;117471;-73
2023/07/17 03:46:53;;;;;;;5.15;3.22;;;24.70;46.90;;;;;;20525;6837;311340;-74
2023/07/17 03:49:19;;;;;;;3.60;3.08;;;25.20;46.60;;;;;;20513;6837;282636;-72
2023/07/17 03:51:45;;;;;;;3.50;2.70;;;25.20;46.60;;;;;;20736;6837;119235;-72
2023/07/17 03:54:10;;;;;;;3.47;3.10;;;25.00;46.60;;;;;;20532;6837;279289;-72
2023/07/17 03:56:39;;;;;;;4.07;3.20;;;25.30;47.00;;;;;;20531;6837;277204;-71
2023/07/17 03:59:03;;;;;;;2.70;2.50;;;25.30;46.40;;;;;;20730;6837;117355;-72
2023/07/17 04:01:28;;;;;;;3.20;2.90;;;25.10;46.50;;;;;;20726;6837;117473;-72
2023/07/17 04:03:53;;;;;;;2.90;2.70;;;24.80;47.10;;;;;;20735;6837;117765;-72
2023/07/17 04:06:27;;;;;;;3.50;3.20;;;24.50;47.50;;;;;;20749;6837;117186;-72
2023/07/17 04:08:53;;;;;;;3.53;2.93;;;24.30;47.80;;;;;;20496;6837;307089;-73
2023/07/17 04:11:20;;;;;;;3.37;3.07;;;24.90;46.90;;;;;;20468;6837;307641;-72
2023/07/17 04:13:46;;;;;;;3.07;2.83;;;24.90;46.90;;;;;;20730;6837;118152;-72
2023/07/17 04:16:12;;;;;;;3.10;2.90;;;24.90;46.90;;;;;;20729;6837;121024;-72
2023/07/17 04:18:37;;;;;;;3.30;3.10;;;24.70;47.10;;;;;;20514;6837;300379;-72
2023/07/17 04:21:03;;;;;;;2.93;2.37;;;24.80;46.80;;;;;;20732;6837;119164;-72
2023/07/17 04:23:30;;;;;;;3.40;3.10;;;25.00;46.40;;;;;;20378;6837;282536;-72
2023/07/17 04:25:55;;;;;;;3.25;2.90;;;25.00;46.30;;;;;;20519;6835;336106;-72
2023/07/17 04:28:21;;;;;;;3.00;2.73;;;25.30;45.70;;;;;;20742;6836;117032;-72
2023/07/17 04:30:47;;;;;;;2.73;2.40;;;25.20;45.90;;;;;;20729;6837;117880;-72
2023/07/17 04:33:18;;;;;;;3.63;2.60;;;24.80;46.70;;;;;;20737;6837;116980;-77
2023/07/17 04:35:44;;;;;;;3.03;2.80;;;24.70;46.60;;;;;;20548;6837;282133;-74
2023/07/17 04:38:09;;;;;;;2.77;2.53;;;25.00;46.10;;;;;;20545;6837;341958;-73
2023/07/17 04:40:36;;;;;;;3.00;2.80;;;25.60;44.70;;;;;;20530;6837;277950;-74
2023/07/17 04:43:01;;;;;;;3.40;3.00;;;25.60;44.70;;;;;;20528;6837;336959;-73
2023/07/17 04:45:27;;;;;;;2.83;2.62;;;25.80;44.10;;;;;;20479;6837;311006;-73
2023/07/17 04:47:52;;;;;;;4.00;2.70;;;26.00;43.80;;;;;;20745;6837;117313;-71
2023/07/17 04:50:18;;;;;;;3.30;2.60;;;25.80;44.30;;;;;;20533;6837;282873;-74
2023/07/17 04:52:44;;;;;;;3.23;2.93;;;26.00;43.90;;;;;;20520;6837;312106;-75
2023/07/17 04:55:10;;;;;;;3.13;2.80;;;26.00;43.90;;;;;;20550;6822;276957;-75
2023/07/17 04:57:36;;;;;;;3.17;2.87;;;26.20;43.40;;;;;;20543;6822;335095;-75
2023/07/17 05:00:05;;;;;;;4.10;2.90;;;26.10;43.30;;;;;;20570;6822;277415;-76
2023/07/17 05:02:30;;;;;;;3.40;2.80;;;26.20;43.20;;;;;;20773;6822;117246;-75
2023/07/17 05:04:56;;;;;;;2.92;2.72;;;26.00;43.90;;;;;;20781;6822;117845;-74
2023/07/17 05:07:22;;;;;;;2.90;2.70;;;25.70;44.60;;;;;;20554;6822;292492;-74
2023/07/17 05:09:48;;;;;;;3.10;2.80;;;26.00;44.00;;;;;;20558;6822;315776;-74
2023/07/17 05:12:13;;;;;;;2.77;2.53;;;26.00;44.00;;;;;;20786;6822;117134;-75
2023/07/17 05:14:39;;;;;;;3.90;2.70;;;25.90;44.30;;;;;;20778;6822;121964;-75
2023/07/17 05:17:05;;;;;;;4.93;2.97;;;25.70;44.90;;;;;;20770;6822;120304;-73
2023/07/17 05:19:30;;;;;;;2.87;2.67;;;25.50;45.30;;;;;;20757;6822;120008;-74
2023/07/17 05:21:56;;;;;;;3.12;2.72;;;25.30;45.60;;;;;;20574;6822;277097;-73
2023/07/17 05:24:21;;;;;;;2.47;2.27;;;25.50;45.20;;;;;;20760;6822;116977;-73
2023/07/17 05:26:47;;;;;;;3.33;3.03;;;25.50;45.40;;;;;;20550;6822;277452;-74
2023/07/17 05:29:12;;;;;;;2.90;2.70;;;25.70;45.10;;;;;;20784;6822;118325;-73
2023/07/17 05:31:38;;;;;;;5.93;2.62;;;25.60;45.20;;;;;;20764;6822;117174;-73
2023/07/17 05:34:03;;;;;;;4.97;2.60;;;25.50;45.60;;;;;;20786;6822;118823;-76
2023/07/17 05:36:29;;;;;;;3.90;2.80;;;25.30;45.90;;;;;;20786;6820;117523;-74
2023/07/17 05:38:55;;;;;;;3.20;2.90;;;25.20;46.20;;;;;;20784;6821;117394;-74
2023/07/17 05:41:20;;;;;;;3.70;2.60;;;25.10;46.30;;;;;;20771;6821;118558;-74
2023/07/17 05:43:46;;;;;;;3.03;2.83;;;25.10;46.50;;;;;;20568;6822;309789;-73
2023/07/17 05:46:11;;;;;;;3.40;3.10;;;25.40;45.90;;;;;;20573;6822;277071;-72
2023/07/17 05:48:38;;;;;;;6.40;2.80;;;25.80;45.30;;;;;;20787;6822;117559;-71
2023/07/17 05:51:03;;;;;;;4.77;3.10;;;25.80;45.30;;;;;;20569;6822;305239;-72
2023/07/17 05:53:29;;;;;;;2.90;2.60;;;26.00;45.40;;;;;;20750;6822;118373;-73
2023/07/17 05:55:55;;;;;;;4.28;3.12;;;26.00;44.90;;;;;;20577;6822;276885;-73
2023/07/17 05:58:20;;;;;;;3.78;3.20;;;26.30;44.10;;;;;;20779;6822;118198;-73
2023/07/17 06:00:46;;;;;;;5.63;2.70;;;26.40;44.50;;;;;;20787;6822;117024;-73
2023/07/17 06:03:12;;;;;;;4.73;2.93;;;26.30;45.10;;;;;;20796;6822;117133;-72
2023/07/17 06:05:38;;;;;;;3.60;3.30;;;26.30;45.00;;;;;;20554;6822;312279;-74
2023/07/17 06:08:04;;;;;;;2.87;2.67;;;26.60;43.50;;;;;;20780;6822;117606;-74
2023/07/17 06:10:29;;;;;;;3.10;2.60;;;26.70;43.60;;;;;;20781;6822;119102;-76
2023/07/17 06:12:56;;;;;;;3.35;3.05;;;26.60;43.80;;;;;;20580;6822;283757;-74
2023/07/17 06:15:21;;;;;;;3.10;2.87;;;26.90;42.80;;;;;;20563;6822;277051;-73
2023/07/17 06:17:48;;;;;;;3.20;2.90;;;27.70;40.90;;;;;;20572;6822;306824;-73
2023/07/17 06:20:13;;;;;;;3.80;2.90;;;27.70;40.90;;;;;;20791;6822;117474;-75
2023/07/17 06:22:39;;;;;;;3.40;3.20;;;27.80;40.70;;;;;;20577;6822;282672;-73
2023/07/17 06:25:05;;;;;;;3.43;3.13;;;27.90;40.70;;;;;;20568;6822;277431;-74
2023/07/17 06:27:31;;;;;;;2.93;2.73;;;28.10;39.90;;;;;;20773;6822;121792;-74
2023/07/17 06:29:56;;;;;;;2.80;2.43;;;28.00;40.60;;;;;;20791;6822;117518;-73
2023/07/17 06:32:22;;;;;;;3.23;2.93;;;28.00;41.20;;;;;;20785;6822;117540;-73
2023/07/17 06:34:47;;;;;;;3.70;3.33;;;28.10;41.70;;;;;;20577;6822;336200;-75
2023/07/17 06:37:13;;;;;;;3.47;3.10;;;28.70;39.10;;;;;;20580;6822;276855;-75
2023/07/17 06:39:38;;;;;;;3.10;2.80;;;29.50;37.70;;;;;;20776;6822;124213;-74
2023/07/17 06:42:04;;;;;;;3.10;2.80;;;29.90;38.30;;;;;;20797;6822;122980;-76
2023/07/17 06:44:30;;;;;;;5.33;2.90;;;30.10;38.40;;;;;;20790;6822;117616;-74
2023/07/17 06:46:57;;;;;;;3.43;3.13;;;30.90;35.70;;;;;;20579;6822;279420;-76
2023/07/17 06:49:22;;;;;;;3.00;2.80;;;30.90;35.70;;;;;;20773;6820;117192;-76
2023/07/17 06:51:48;;;;;;;2.93;2.73;;;31.30;36.20;;;;;;20569;6821;280417;-76
2023/07/17 06:54:13;;;;;;;5.53;3.20;;;31.80;34.00;;;;;;20784;6821;117139;-76
2023/07/17 06:56:39;;;;;;;4.50;3.40;;;32.00;34.60;;;;;;20570;6822;282443;-76
2023/07/17 06:59:04;;;;;;;3.87;2.80;;;32.50;32.90;;;;;;20791;6822;118127;-77
2023/07/17 07:01:30;;;;;;;3.20;2.90;;;32.70;33.70;;;;;;20566;6822;277864;-76
2023/07/17 07:03:56;;;;;;;3.10;2.90;;;33.00;31.70;;;;;;20568;6822;311827;-77
2023/07/17 07:06:21;;;;;;;3.80;3.40;;;33.50;31.30;;;;;;20570;6822;281356;-77
2023/07/17 07:08:47;;;;;;;3.90;3.03;;;33.90;30.40;;;;;;20569;6822;306395;-77
2023/07/17 07:11:12;;;;;;;3.00;2.70;;;34.10;30.20;;;;;;20775;6822;118550;-76
2023/07/17 07:13:38;;;;;;;3.40;3.03;;;34.00;31.10;;;;;;20559;6822;311030;-77
2023/07/17 07:16:03;;;;;;;3.50;3.30;;;34.00;30.10;;;;;;20565;6822;306158;-76
2023/07/17 07:18:29;;;;;;;3.67;3.00;;;34.10;30.10;;;;;;20570;6822;337484;-77
2023/07/17 07:20:55;;;;;;;4.17;3.17;;;34.20;30.00;;;;;;20784;6822;117905;-76
2023/07/17 07:23:20;;;;;;;3.17;2.87;;;33.90;30.60;;;;;;20769;6822;118348;-77
2023/07/17 07:25:47;;;;;;;3.70;3.30;;;33.40;31.00;;;;;;20570;6822;310484;-77
2023/07/17 07:28:14;;;;;;;3.80;3.20;;;33.40;31.30;;;;;;20558;6822;306874;-77
2023/07/17 07:30:39;;;;;;;4.03;3.62;;;33.40;29.60;;;;;;20780;6822;117517;-77
2023/07/17 07:33:04;;;;;;;3.93;3.30;;;33.20;30.50;;;;;;20573;6822;321839;-76
2023/07/17 07:35:30;;;;;;;3.67;3.33;;;33.20;30.00;;;;;;20768;6822;118357;-76
2023/07/17 07:37:55;;;;;;;4.30;4.00;;;33.00;30.60;;;;;;20570;6822;306836;-77
2023/07/17 07:40:21;;;;;;;4.53;3.43;;;33.00;30.80;;;;;;20785;6822;118982;-76
2023/07/17 07:42:46;;;;;;;5.13;3.90;;;32.80;31.10;;;;;;20573;6822;280712;-77
2023/07/17 07:45:12;;;;;;;4.28;3.87;;;32.80;30.80;;;;;;20579;6822;276492;-76
2023/07/17 07:47:41;;;;;;;4.67;4.17;;;32.90;30.00;;;;;;20767;6822;118372;-77
2023/07/17 07:50:07;;;;;;;4.85;4.15;;;32.60;29.80;;;;;;20576;6822;306485;-77
2023/07/17 07:52:33;;;;;;;4.82;4.37;;;32.50;29.70;;;;;;20581;6822;305933;-77
2023/07/17 07:54:58;;;;;;;5.40;4.10;;;32.70;30.00;;;;;;20583;6822;277289;-76
2023/07/17 07:57:25;;;;;;;4.37;3.92;;;32.80;29.70;;;;;;20548;6822;299122;-77
2023/07/17 07:59:51;;;;;;;4.35;3.90;;;32.80;29.60;;;;;;20581;6820;277937;-77
2023/07/17 08:02:17;;;;;;;4.60;4.20;;;33.00;29.50;;;;;;20580;6821;306862;-76
2023/07/17 08:04:42;;;;;;;5.07;4.60;;;33.10;29.80;;;;;;20572;6821;279558;-77
2023/07/17 08:07:08;;;;;;;4.50;4.20;;;33.20;28.80;;;;;;20572;6822;276905;-77
2023/07/17 08:09:33;;;;;;;4.60;4.20;;;33.40;28.60;;;;;;20769;6822;118590;-76
2023/07/17 08:11:59;;;;;;;4.37;3.93;;;33.00;29.70;;;;;;20785;6822;117474;-77
2023/07/17 08:14:25;;;;;;;4.40;4.07;;;32.90;29.70;;;;;;20579;6822;310209;-77
2023/07/17 08:16:51;;;;;;;4.90;4.40;;;33.00;29.00;;;;;;20574;6822;306154;-79
2023/07/17 08:19:16;;;;;;;5.47;4.62;;;33.20;28.80;;;;;;20571;6822;339994;-77
2023/07/17 08:21:42;;;;;;;4.63;4.23;;;33.50;28.10;;;;;;20760;6822;119010;-77
2023/07/17 08:24:07;;;;;;;5.87;4.67;;;33.40;28.80;;;;;;20569;6822;281566;-77
2023/07/17 08:26:34;;;;;;;4.30;4.00;;;33.40;29.00;;;;;;20792;6822;117781;-75
2023/07/17 08:29:00;;;;;;;4.53;4.13;;;33.40;29.00;;;;;;20784;6822;118476;-74
2023/07/17 08:31:25;;;;;;;4.80;4.40;;;33.20;29.30;;;;;;20766;6822;117757;-74
2023/07/17 08:33:52;;;;;;;7.65;4.28;;;33.10;29.40;;;;;;20786;6822;119044;-74
2023/07/17 08:36:19;;;;;;;4.90;4.50;;;33.00;29.60;;;;;;20575;6822;311066;-74
2023/07/17 08:38:45;;;;;;;7.57;4.40;;;33.20;28.70;;;;;;20568;6822;306427;-73
2023/07/17 08:41:10;;;;;;;6.63;4.63;;;33.60;27.80;;;;;;20574;6822;281073;-73
2023/07/17 08:43:36;;;;;;;5.07;4.60;;;33.90;27.40;;;;;;20771;6822;141510;-75
2023/07/17 08:46:02;;;;;;;5.45;4.80;;;34.00;27.30;;;;;;20576;6822;277818;-72
2023/07/17 08:48:27;;;;;;;4.80;4.40;;;34.00;27.30;;;;;;20580;6822;277078;-73
2023/07/17 08:50:53;;;;;;;5.03;4.53;;;34.30;26.30;;;;;;20574;6822;337079;-72
2023/07/17 08:53:19;;;;;;;4.90;4.50;;;34.40;25.70;;;;;;20573;6822;288658;-70
2023/07/17 08:55:45;;;;;;;6.68;4.32;;;34.70;25.80;;;;;;20554;6822;306909;-72
2023/07/17 08:58:10;;;;;;;5.83;4.70;;;34.70;25.80;;;;;;20784;6822;119028;-72
2023/07/17 09:00:37;;;;;;;4.78;4.25;;;34.40;26.30;;;;;;20587;6822;306049;-72
2023/07/17 09:03:02;;;;;;;4.63;4.33;;;34.50;26.40;;;;;;20783;6822;118327;-71
2023/07/17 09:05:28;;;;;;;5.03;4.57;;;34.30;26.70;;;;;;20772;6822;118056;-71
2023/07/17 09:07:53;;;;;;;4.60;4.20;;;34.10;27.20;;;;;;20573;6822;282054;-71
2023/07/17 09:10:23;;;;;;;4.70;4.30;;;34.30;25.00;;;;;;20580;6822;278669;-72
2023/07/17 09:12:48;;;;;;;4.70;4.30;;;34.30;25.00;;;;;;20574;6820;311231;-73
2023/07/17 09:15:15;;;;;;;5.00;4.60;;;34.40;25.30;;;;;;20565;6821;280679;-71
2023/07/17 09:17:39;;;;;;;4.70;4.40;;;34.60;25.90;;;;;;20560;6821;306380;-71
2023/07/17 09:20:08;;;;;;;4.30;3.97;;;34.70;25.50;;;;;;20784;6822;117285;-73
2023/07/17 09:22:32;;;;;;;4.78;4.22;;;34.70;26.20;;;;;;20560;6822;291553;-73
2023/07/17 09:24:57;;;;;;;4.37;3.97;;;34.70;25.60;;;;;;20797;6822;117182;-72
2023/07/17 09:27:23;;;;;;;4.50;4.20;;;34.50;26.10;;;;;;20775;6822;118627;-73
2023/07/17 09:29:49;;;;;;;4.13;3.83;;;34.20;26.00;;;;;;20806;6822;117360;-72
2023/07/17 09:32:14;;;;;;;5.27;3.93;;;34.00;26.70;;;;;;20800;6822;116983;-71
2023/07/17 09:34:40;;;;;;;4.73;4.33;;;33.90;27.10;;;;;;20573;6822;277091;-72
2023/07/17 09:37:09;;;;;;;4.90;4.50;;;34.00;26.40;;;;;;20570;6822;276998;-71
2023/07/17 09:39:34;;;;;;;4.63;4.23;;;34.40;25.90;;;;;;20541;6822;310846;-71
2023/07/17 09:42:00;;;;;;;4.47;4.07;;;34.60;26.10;;;;;;20563;6822;305950;-71
2023/07/17 09:44:25;;;;;;;4.43;4.13;;;34.90;26.20;;;;;;20582;6822;277031;-71
2023/07/17 09:46:51;;;;;;;5.00;4.50;;;35.00;25.20;;;;;;20565;6822;309623;-72
2023/07/17 09:49:16;;;;;;;5.63;4.07;;;35.10;25.00;;;;;;20780;6822;117023;-71
2023/07/17 09:51:42;;;;;;;4.73;4.33;;;34.90;25.40;;;;;;20550;6822;276758;-71
2023/07/17 09:54:07;;;;;;;4.40;4.10;;;34.80;25.50;;;;;;20567;6822;306796;-71
2023/07/17 09:56:36;;;;;;;4.50;4.20;;;34.90;25.10;;;;;;20572;6822;277053;-74
2023/07/17 09:59:15;;;;;;;4.23;3.93;;;35.00;25.60;;;;;;20790;6822;118147;-73
2023/07/17 10:01:42;;;;;;;4.85;4.45;;;34.90;26.20;;;;;;20551;6822;307266;-74
2023/07/17 10:04:07;;;;;;;6.13;4.13;;;34.90;25.50;;;;;;20558;6822;307362;-73
2023/07/17 10:06:34;;;;;;;4.60;3.83;;;35.00;25.50;;;;;;20787;6822;117177;-75
2023/07/17 10:08:59;;;;;;;5.00;4.50;;;35.00;25.50;;;;;;20780;6822;117175;-75
2023/07/17 10:11:26;;;;;;;4.50;4.10;;;34.80;25.60;;;;;;20543;6822;277515;-75
2023/07/17 10:13:51;;;;;;;4.80;4.30;;;34.80;25.60;;;;;;20782;6822;117784;-74
2023/07/17 10:16:17;;;;;;;4.97;3.87;;;34.80;25.70;;;;;;20784;6822;118239;-74
2023/07/17 10:18:49;;;;;;;4.67;4.37;;;34.60;26.00;;;;;;20567;6822;277021;-73
2023/07/17 10:21:15;;;;;;;5.17;4.27;;;34.50;25.80;;;;;;20787;6822;117617;-74
2023/07/17 10:23:40;;;;;;;4.77;4.37;;;34.50;25.90;;;;;;20739;6820;117750;-75
2023/07/17 10:26:07;;;;;;;4.50;4.20;;;34.40;26.40;;;;;;20782;6821;117168;-75
2023/07/17 10:28:32;;;;;;;4.90;4.20;;;34.30;26.50;;;;;;20579;6821;301217;-75
2023/07/17 10:30:57;;;;;;;4.33;4.03;;;34.40;25.20;;;;;;20785;6822;118316;-75
2023/07/17 10:33:23;;;;;;;5.13;4.50;;;34.50;25.70;;;;;;20752;6822;121735;-76
2023/07/17 10:35:52;;;;;;;5.60;4.33;;;34.40;25.80;;;;;;20567;6822;339001;-76
2023/07/17 10:38:17;;;;;;;4.53;4.22;;;34.40;25.20;;;;;;20540;6822;340498;-75
2023/07/17 10:40:43;;;;;;;4.40;4.10;;;34.50;25.70;;;;;;20771;6822;120559;-75
2023/07/17 10:43:12;;;;;;;4.93;4.50;;;34.50;25.80;;;;;;20571;6822;277089;-74
2023/07/17 10:45:38;;;;;;;5.20;4.13;;;34.50;25.70;;;;;;20747;6822;118148;-77
2023/07/17 10:48:03;;;;;;;5.40;4.55;;;34.40;25.40;;;;;;20573;6822;329675;-74
2023/07/17 10:50:29;;;;;;;5.07;4.67;;;34.40;25.40;;;;;;20787;6822;117092;-74
2023/07/17 10:52:54;;;;;;;5.00;4.30;;;34.30;26.00;;;;;;20576;6822;301705;-78
2023/07/17 10:55:21;;;;;;;4.87;4.53;;;34.30;25.40;;;;;;20764;6822;117132;-77
2023/07/17 10:57:47;;;;;;;4.30;4.00;;;34.10;25.60;;;;;;20771;6822;118419;-75
2023/07/17 11:00:13;;;;;;;4.70;4.30;;;33.70;25.80;;;;;;20582;6822;281971;-78
2023/07/17 11:02:39;;;;;;;4.23;3.90;;;33.70;25.80;;;;;;20750;6822;117107;-74
2023/07/17 11:05:05;;;;;;;4.90;4.50;;;33.50;26.40;;;;;;20566;6822;277427;-74
2023/07/17 11:07:34;;;;;;;4.53;4.13;;;33.40;26.10;;;;;;20546;6822;292590;-74
2023/07/17 11:10:00;;;;;;;4.67;4.37;;;33.50;26.50;;;;;;20783;6822;117927;-74
2023/07/17 11:12:25;;;;;;;5.33;4.77;;;33.40;26.80;;;;;;20571;6822;281226;-76
2023/07/17 11:14:50;;;;;;;4.77;4.33;;;33.40;26.60;;;;;;20559;6822;306866;-75
2023/07/17 11:17:16;;;;;;;5.20;4.80;;;33.60;26.40;;;;;;20773;6822;117174;-74
2023/07/17 11:19:42;;;;;;;5.07;4.37;;;33.60;26.60;;;;;;20555;6822;306476;-77
2023/07/17 11:22:07;;;;;;;5.15;4.30;;;33.70;26.20;;;;;;20568;6822;320156;-77
2023/07/17 11:24:34;;;;;;;5.43;4.37;;;33.80;26.30;;;;;;20773;6822;117067;-82
2023/07/17 11:27:00;;;;;;;4.80;4.40;;;33.80;26.30;;;;;;20566;6822;306385;-76
2023/07/17 11:29:26;;;;;;;4.50;4.10;;;33.80;25.60;;;;;;20761;6822;121914;-76
2023/07/17 11:31:56;;;;;;;5.05;4.57;;;33.40;25.60;;;;;;20572;6822;345704;-77
2023/07/17 11:34:21;;;;;;;4.50;4.20;;;33.40;25.60;;;;;;20777;6820;118229;-76
2023/07/17 11:36:47;;;;;;;5.00;4.60;;;33.20;26.20;;;;;;20796;6821;117225;-84
2023/07/17 11:39:21;;;;;;;4.57;4.28;;;32.80;26.40;;;;;;20596;6821;280949;-82
2023/07/17 11:41:46;;;;;;;4.53;4.23;;;32.80;26.20;;;;;;20756;6822;118349;-84
2023/07/17 11:44:16;;;;;;;5.03;4.60;;;32.70;26.90;;;;;;20394;6822;306431;-82
2023/07/17 11:46:42;;;;;;;4.53;4.13;;;32.60;27.00;;;;;;20513;6822;117023;-81
2023/07/17 11:49:17;;;;;;;4.47;4.10;;;32.60;27.70;;;;;;20592;6837;117331;-77
2023/07/17 11:51:43;;;;;;;4.70;4.33;;;32.50;27.70;;;;;;20768;6822;119621;-81
2023/07/17 11:54:11;;;;;;;4.70;4.30;;;32.40;28.00;;;;;;20793;6822;119616;-82
2023/07/17 11:56:36;;;;;;;5.00;4.60;;;32.30;27.90;;;;;;20577;6822;336202;-81
2023/07/17 11:59:02;;;;;;;4.97;4.47;;;32.50;27.30;;;;;;20589;6822;279422;-81
2023/07/17 12:01:29;;;;;;;4.20;3.90;;;32.80;26.70;;;;;;20771;6822;117053;-81
2023/07/17 12:03:54;;;;;;;4.80;4.43;;;32.70;27.00;;;;;;20568;6822;336504;-81
2023/07/17 12:06:21;;;;;;;4.85;4.45;;;32.80;27.00;;;;;;20582;6822;305037;-81
2023/07/17 12:08:46;;;;;;;4.30;4.00;;;33.00;27.10;;;;;;20784;6822;118601;-82
2023/07/17 12:11:12;;;;;;;4.90;4.37;;;33.00;27.00;;;;;;20793;6822;117073;-82
2023/07/17 12:13:37;;;;;;;5.00;4.60;;;32.90;27.50;;;;;;20566;6822;306902;-82
2023/07/17 12:16:03;;;;;;;5.00;4.60;;;33.10;27.60;;;;;;20796;6822;118349;-77
2023/07/17 12:18:29;;;;;;;5.03;4.43;;;33.30;27.80;;;;;;20581;6822;306000;-83
2023/07/17 12:20:54;;;;;;;5.17;4.77;;;33.60;27.00;;;;;;20782;6822;118753;-81
2023/07/17 12:23:23;;;;;;;5.20;4.78;;;33.70;27.50;;;;;;20592;6822;306928;-77
2023/07/17 12:25:48;;;;;;;4.70;4.30;;;33.80;26.60;;;;;;20735;6822;122484;-79
2023/07/17 12:28:14;;;;;;;4.73;4.43;;;33.80;26.80;;;;;;20578;6822;277024;-80